sensor_id;sensor_type;location;lat;lon;timestamp;pressure;altitude;pressure_sealevel;temperature;humidity
64352;BME280;50680;52.626;-8.668;2023-02-10T00:00:19;103500.00;;;3.89;100.00
64352;BME280;50680;52.626;-8.668;2023-02-10T00:02:45;103482.59;;;3.82;100.00
64352;BME280;50680;52.626;-8.668;2023-02-10T00:05:12;103503.53;;;3.94;100.00
64352;BME280;50680;52.626;-8.668;2023-02-10T00:07:39;103502.72;;;3.97;100.00
64352;BME280;50680;52.626;-8.668;2023-02-10T00:10:06;103507.00;;;3.96;100.00
64352;BME280;50680;52.626;-8.668;2023-02-10T00:12:36;103500.13;;;3.98;100.00
64352;BME280;50680;52.626;-8.668;2023-02-10T00:15:05;103507.06;;;4.01;100.00
64352;BME280;50680;52.626;-8.668;2023-02-10T00:17:32;103500.22;;;4.06;100.00
64352;BME280;50680;52.626;-8.668;2023-02-10T00:19:59;103495.97;;;4.11;100.00
64352;BME280;50680;52.626;-8.668;2023-02-10T00:22:25;103481.25;;;4.13;100.00
64352;BME280;50680;52.626;-8.668;2023-02-10T00:24:52;103483.91;;;4.16;100.00
64352;BME280;50680;52.626;-8.668;2023-02-10T00:27:19;103486.56;;;4.21;100.00
64352;BME280;50680;52.626;-8.668;2023-02-10T00:29:51;103489.19;;;4.24;100.00
64352;BME280;50680;52.626;-8.668;2023-02-10T00:32:18;103479.72;;;4.29;100.00
64352;BME280;50680;52.626;-8.668;2023-02-10T00:34:45;103470.28;;;4.36;100.00
64352;BME280;50680;52.626;-8.668;2023-02-10T00:37:12;103476.41;;;4.42;100.00
64352;BME280;50680;52.626;-8.668;2023-02-10T00:39:39;103467.78;;;4.46;100.00
64352;BME280;50680;52.626;-8.668;2023-02-10T00:42:05;103473.91;;;4.50;100.00
64352;BME280;50680;52.626;-8.668;2023-02-10T00:44:32;103483.44;;;4.52;100.00
64352;BME280;50680;52.626;-8.668;2023-02-10T00:46:59;103474.81;;;4.57;100.00
64352;BME280;50680;52.626;-8.668;2023-02-10T00:49:26;103473.97;;;4.58;100.00
64352;BME280;50680;52.626;-8.668;2023-02-10T00:51:53;103474.03;;;4.61;100.00
64352;BME280;50680;52.626;-8.668;2023-02-10T00:54:20;103472.34;;;4.66;100.00
64352;BME280;50680;52.626;-8.668;2023-02-10T00:56:46;103468.91;;;4.70;100.00
64352;BME280;50680;52.626;-8.668;2023-02-10T00:59:13;103449.84;;;4.69;100.00
64352;BME280;50680;52.626;-8.668;2023-02-10T01:01:42;103453.38;;;4.76;100.00
64352;BME280;50680;52.626;-8.668;2023-02-10T01:04:09;103454.28;;;4.80;100.00
64352;BME280;50680;52.626;-8.668;2023-02-10T01:06:36;103443.88;;;4.81;100.00
64352;BME280;50680;52.626;-8.668;2023-02-10T01:09:02;103428.31;;;4.83;100.00
64352;BME280;50680;52.626;-8.668;2023-02-10T01:11:29;103426.56;;;4.82;100.00
64352;BME280;50680;52.626;-8.668;2023-02-10T01:13:56;103429.16;;;4.83;100.00
64352;BME280;50680;52.626;-8.668;2023-02-10T01:16:23;103439.59;;;4.86;100.00
64352;BME280;50680;52.626;-8.668;2023-02-10T01:18:50;103430.09;;;4.88;100.00
64352;BME280;50680;52.626;-8.668;2023-02-10T01:21:18;103434.41;;;4.91;100.00
64352;BME280;50680;52.626;-8.668;2023-02-10T01:23:46;103423.19;;;4.94;100.00
64352;BME280;50680;52.626;-8.668;2023-02-10T01:26:14;103433.59;;;4.98;100.00
64352;BME280;50680;52.626;-8.668;2023-02-10T01:28:41;103431.94;;;5.02;100.00
64352;BME280;50680;52.626;-8.668;2023-02-10T01:31:14;103431.06;;;5.04;100.00
64352;BME280;50680;52.626;-8.668;2023-02-10T01:33:41;103431.13;;;5.09;100.00
64352;BME280;50680;52.626;-8.668;2023-02-10T01:36:16;103423.31;;;5.12;100.00
64352;BME280;50680;52.626;-8.668;2023-02-10T01:38:44;103425.09;;;5.18;100.00
64352;BME280;50680;52.626;-8.668;2023-02-10T01:41:13;103416.44;;;5.20;100.00
64352;BME280;50680;52.626;-8.668;2023-02-10T01:44:01;103413.84;;;5.20;100.00
64352;BME280;50680;52.626;-8.668;2023-02-10T01:46:33;103419.09;;;5.28;100.00
64352;BME280;50680;52.626;-8.668;2023-02-10T01:49:04;103403.50;;;5.30;100.00
64352;BME280;50680;52.626;-8.668;2023-02-10T01:51:41;103409.59;;;5.32;100.00
64352;BME280;50680;52.626;-8.668;2023-02-10T01:54:14;103410.50;;;5.40;100.00
64352;BME280;50680;52.626;-8.668;2023-02-10T01:56:42;103404.47;;;5.45;100.00
64352;BME280;50680;52.626;-8.668;2023-02-10T01:59:09;103400.13;;;5.46;100.00
64352;BME280;50680;52.626;-8.668;2023-02-10T02:01:36;103401.00;;;5.51;100.00
64352;BME280;50680;52.626;-8.668;2023-02-10T02:04:04;103402.78;;;5.58;100.00
64352;BME280;50680;52.626;-8.668;2023-02-10T02:06:32;103403.66;;;5.62;100.00
64352;BME280;50680;52.626;-8.668;2023-02-10T02:09:00;103397.63;;;5.68;100.00
64352;BME280;50680;52.626;-8.668;2023-02-10T02:14:44;103404.59;;;5.72;100.00
64352;BME280;50680;52.626;-8.668;2023-02-10T02:17:24;103401.16;;;5.79;100.00
64352;BME280;50680;52.626;-8.668;2023-02-10T02:28:43;103395.97;;;5.91;100.00
64352;BME280;50680;52.626;-8.668;2023-02-10T02:37:07;103396.06;;;5.99;100.00
64352;BME280;50680;52.626;-8.668;2023-02-10T02:39:36;103389.09;;;6.01;100.00
64352;BME280;50680;52.626;-8.668;2023-02-10T02:42:22;103391.72;;;6.02;100.00
64352;BME280;50680;52.626;-8.668;2023-02-10T02:45:10;103385.63;;;6.03;100.00
64352;BME280;50680;52.626;-8.668;2023-02-10T02:50:57;103378.69;;;6.09;100.00
64352;BME280;50680;52.626;-8.668;2023-02-10T02:58:32;103376.13;;;6.21;100.00
64352;BME280;50680;52.626;-8.668;2023-02-10T03:01:05;103377.00;;;6.23;100.00
64352;BME280;50680;52.626;-8.668;2023-02-10T03:03:35;103378.75;;;6.26;100.00
64352;BME280;50680;52.626;-8.668;2023-02-10T03:06:03;103366.56;;;6.29;100.00
64352;BME280;50680;52.626;-8.668;2023-02-10T03:08:33;103369.19;;;6.31;100.00
64352;BME280;50680;52.626;-8.668;2023-02-10T03:11:00;103361.38;;;6.32;100.00
64352;BME280;50680;52.626;-8.668;2023-02-10T03:13:27;103364.00;;;6.35;100.00
64352;BME280;50680;52.626;-8.668;2023-02-10T03:15:53;103361.41;;;6.38;100.00
64352;BME280;50680;52.626;-8.668;2023-02-10T03:18:20;103366.59;;;6.42;100.00
64352;BME280;50680;52.626;-8.668;2023-02-10T03:20:47;103371.81;;;6.43;100.00
64352;BME280;50680;52.626;-8.668;2023-02-10T03:23:14;103373.56;;;6.46;100.00
64352;BME280;50680;52.626;-8.668;2023-02-10T03:25:44;103368.34;;;6.46;100.00
64352;BME280;50680;52.626;-8.668;2023-02-10T03:28:11;103368.31;;;6.49;100.00
64352;BME280;50680;52.626;-8.668;2023-02-10T03:30:39;103366.59;;;6.48;100.00
64352;BME280;50680;52.626;-8.668;2023-02-10T03:33:14;103370.06;;;6.48;100.00
64352;BME280;50680;52.626;-8.668;2023-02-10T03:35:43;103368.34;;;6.55;100.00
64352;BME280;50680;52.626;-8.668;2023-02-10T03:38:11;103362.28;;;6.57;100.00
64352;BME280;50680;52.626;-8.668;2023-02-10T03:40:39;103357.03;;;6.59;100.00
64352;BME280;50680;52.626;-8.668;2023-02-10T03:43:06;103348.38;;;6.62;100.00
64352;BME280;50680;52.626;-8.668;2023-02-10T03:45:32;103354.44;;;6.62;100.00
64352;BME280;50680;52.626;-8.668;2023-02-10T03:47:59;103349.22;;;6.65;100.00
64352;BME280;50680;52.626;-8.668;2023-02-10T03:50:26;103347.47;;;6.67;100.00
64352;BME280;50680;52.626;-8.668;2023-02-10T03:52:53;103341.41;;;6.70;100.00
64352;BME280;50680;52.626;-8.668;2023-02-10T03:55:19;103344.88;;;6.73;100.00
64352;BME280;50680;52.626;-8.668;2023-02-10T03:57:46;103349.22;;;6.76;100.00
64352;BME280;50680;52.626;-8.668;2023-02-10T04:00:14;103349.22;;;6.81;100.00
64352;BME280;50680;52.626;-8.668;2023-02-10T04:02:41;103342.25;;;6.83;100.00
64352;BME280;50680;52.626;-8.668;2023-02-10T04:05:08;103343.13;;;6.89;100.00
64352;BME280;50680;52.626;-8.668;2023-02-10T04:07:36;103336.16;;;6.91;100.00
64352;BME280;50680;52.626;-8.668;2023-02-10T04:10:04;103346.59;;;6.97;100.00
64352;BME280;50680;52.626;-8.668;2023-02-10T04:12:31;103342.22;;;7.01;100.00
64352;BME280;50680;52.626;-8.668;2023-02-10T04:14:58;103330.06;;;7.05;100.00
64352;BME280;50680;52.626;-8.668;2023-02-10T04:17:25;103344.81;;;7.09;100.00
64352;BME280;50680;52.626;-8.668;2023-02-10T04:19:52;103343.97;;;7.10;100.00
64352;BME280;50680;52.626;-8.668;2023-02-10T04:22:19;103349.16;;;7.11;100.00
64352;BME280;50680;52.626;-8.668;2023-02-10T04:24:45;103343.91;;;7.14;100.00
64352;BME280;50680;52.626;-8.668;2023-02-10T04:27:12;103348.28;;;7.19;100.00
64352;BME280;50680;52.626;-8.668;2023-02-10T04:29:39;103337.84;;;7.19;100.00
64352;BME280;50680;52.626;-8.668;2023-02-10T04:32:07;103342.16;;;7.24;100.00
64352;BME280;50680;52.626;-8.668;2023-02-10T04:34:34;103342.16;;;7.27;100.00
64352;BME280;50680;52.626;-8.668;2023-02-10T04:37:02;103344.78;;;7.30;100.00
64352;BME280;50680;52.626;-8.668;2023-02-10T04:39:29;103340.41;;;7.34;100.00
64352;BME280;50680;52.626;-8.668;2023-02-10T04:41:55;103337.78;;;7.34;100.00
64352;BME280;50680;52.626;-8.668;2023-02-10T04:44:22;103336.03;;;7.39;100.00
64352;BME280;50680;52.626;-8.668;2023-02-10T04:46:49;103340.34;;;7.43;100.00
64352;BME280;50680;52.626;-8.668;2023-02-10T04:49:18;103330.78;;;7.47;100.00
64352;BME280;50680;52.626;-8.668;2023-02-10T04:51:44;103317.72;;;7.42;100.00
64352;BME280;50680;52.626;-8.668;2023-02-10T04:54:11;103334.22;;;7.53;100.00
64352;BME280;50680;52.626;-8.668;2023-02-10T04:56:38;103336.84;;;7.57;100.00
64352;BME280;50680;52.626;-8.668;2023-02-10T04:59:05;103326.38;;;7.58;100.00
64352;BME280;50680;52.626;-8.668;2023-02-10T05:01:32;103343.75;;;7.64;100.00
64352;BME280;50680;52.626;-8.668;2023-02-10T05:03:59;103341.13;;;7.67;100.00
64352;BME280;50680;52.626;-8.668;2023-02-10T05:06:26;103337.69;;;7.63;100.00
64352;BME280;50680;52.626;-8.668;2023-02-10T05:08:53;103347.22;;;7.66;100.00
64352;BME280;50680;52.626;-8.668;2023-02-10T05:11:20;103339.38;;;7.69;100.00
64352;BME280;50680;52.626;-8.668;2023-02-10T05:13:46;103339.38;;;7.72;100.00
64352;BME280;50680;52.626;-8.668;2023-02-10T05:16:14;103343.69;;;7.76;100.00
64352;BME280;50680;52.626;-8.668;2023-02-10T05:18:42;103343.69;;;7.76;100.00
64352;BME280;50680;52.626;-8.668;2023-02-10T05:21:10;103343.69;;;7.79;100.00
64352;BME280;50680;52.626;-8.668;2023-02-10T05:23:38;103348.00;;;7.80;100.00
64352;BME280;50680;52.626;-8.668;2023-02-10T05:26:06;103353.22;;;7.82;100.00
64352;BME280;50680;52.626;-8.668;2023-02-10T05:28:33;103361.06;;;7.83;100.00
64352;BME280;50680;52.626;-8.668;2023-02-10T05:31:01;103356.69;;;7.85;100.00
64352;BME280;50680;52.626;-8.668;2023-02-10T05:33:30;103355.84;;;7.86;100.00
64352;BME280;50680;52.626;-8.668;2023-02-10T05:35:57;103359.28;;;7.88;100.00
64352;BME280;50680;52.626;-8.668;2023-02-10T05:38:23;103354.91;;;7.92;100.00
64352;BME280;50680;52.626;-8.668;2023-02-10T05:40:52;103356.66;;;7.93;100.00
64352;BME280;50680;52.626;-8.668;2023-02-10T05:43:20;103361.88;;;7.95;100.00
64352;BME280;50680;52.626;-8.668;2023-02-10T05:45:47;103357.53;;;7.97;100.00
64352;BME280;50680;52.626;-8.668;2023-02-10T05:48:14;103362.75;;;7.98;100.00
64352;BME280;50680;52.626;-8.668;2023-02-10T05:50:41;103362.72;;;8.01;100.00
64352;BME280;50680;52.626;-8.668;2023-02-10T05:53:08;103364.44;;;8.04;100.00
64352;BME280;50680;52.626;-8.668;2023-02-10T05:55:36;103366.16;;;8.08;100.00
64352;BME280;50680;52.626;-8.668;2023-02-10T05:58:03;103352.22;;;8.09;100.00
64352;BME280;50680;52.626;-8.668;2023-02-10T06:00:30;103362.66;;;8.12;100.00
64352;BME280;50680;52.626;-8.668;2023-02-10T06:02:57;103360.91;;;8.14;100.00
64352;BME280;50680;52.626;-8.668;2023-02-10T06:05:24;103358.28;;;8.16;100.00
64352;BME280;50680;52.626;-8.668;2023-02-10T06:07:51;103361.75;;;8.18;100.00
64352;BME280;50680;52.626;-8.668;2023-02-10T06:10:18;103360.88;;;8.20;100.00
64352;BME280;50680;52.626;-8.668;2023-02-10T06:12:45;103353.03;;;8.19;100.00
64352;BME280;50680;52.626;-8.668;2023-02-10T06:15:11;103348.66;;;8.19;100.00
64352;BME280;50680;52.626;-8.668;2023-02-10T06:17:38;103354.75;;;8.21;100.00
64352;BME280;50680;52.626;-8.668;2023-02-10T06:20:05;103351.25;;;8.24;100.00
64352;BME280;50680;52.626;-8.668;2023-02-10T06:22:32;103352.13;;;8.24;100.00
64352;BME280;50680;52.626;-8.668;2023-02-10T06:24:58;103351.22;;;8.27;100.00
64352;BME280;50680;52.626;-8.668;2023-02-10T06:27:26;103352.97;;;8.28;100.00
64352;BME280;50680;52.626;-8.668;2023-02-10T06:29:53;103346.84;;;8.31;100.00
64352;BME280;50680;52.626;-8.668;2023-02-10T06:32:20;103345.09;;;8.31;100.00
64352;BME280;50680;52.626;-8.668;2023-02-10T06:34:46;103345.09;;;8.31;100.00
64352;BME280;50680;52.626;-8.668;2023-02-10T06:37:13;103339.88;;;8.33;100.00
64352;BME280;50680;52.626;-8.668;2023-02-10T06:39:40;103336.34;;;8.34;100.00
64352;BME280;50680;52.626;-8.668;2023-02-10T06:42:07;103338.97;;;8.35;100.00
64352;BME280;50680;52.626;-8.668;2023-02-10T06:44:34;103335.47;;;8.36;100.00
64352;BME280;50680;52.626;-8.668;2023-02-10T06:47:01;103339.78;;;8.40;100.00
64352;BME280;50680;52.626;-8.668;2023-02-10T06:49:27;103337.19;;;8.40;100.00
64352;BME280;50680;52.626;-8.668;2023-02-10T06:51:54;103341.56;;;8.43;100.00
64352;BME280;50680;52.626;-8.668;2023-02-10T06:54:22;103341.56;;;8.43;100.00
64352;BME280;50680;52.626;-8.668;2023-02-10T06:56:49;103345.03;;;8.45;100.00
64352;BME280;50680;52.626;-8.668;2023-02-10T06:59:16;103342.41;;;8.43;100.00
64352;BME280;50680;52.626;-8.668;2023-02-10T07:01:43;103318.97;;;8.29;100.00
64352;BME280;50680;52.626;-8.668;2023-02-10T07:04:10;103339.81;;;8.43;100.00
64352;BME280;50680;52.626;-8.668;2023-02-10T07:06:38;103346.78;;;8.43;100.00
64352;BME280;50680;52.626;-8.668;2023-02-10T07:09:05;103358.09;;;8.43;100.00
64352;BME280;50680;52.626;-8.668;2023-02-10T07:11:33;103344.16;;;8.41;100.00
64352;BME280;50680;52.626;-8.668;2023-02-10T07:14:00;103345.88;;;8.44;100.00
64352;BME280;50680;52.626;-8.668;2023-02-10T07:16:27;103340.66;;;8.44;100.00
64352;BME280;50680;52.626;-8.668;2023-02-10T07:18:54;103332.81;;;8.44;100.00
64352;BME280;50680;52.626;-8.668;2023-02-10T07:21:21;103333.72;;;8.43;100.00
64352;BME280;50680;52.626;-8.668;2023-02-10T07:23:48;103343.28;;;8.44;100.00
64352;BME280;50680;52.626;-8.668;2023-02-10T07:26:15;103349.41;;;8.43;100.00
64352;BME280;50680;52.626;-8.668;2023-02-10T07:28:44;103348.50;;;8.47;100.00
64352;BME280;50680;52.626;-8.668;2023-02-10T07:31:11;103350.25;;;8.46;100.00
64352;BME280;50680;52.626;-8.668;2023-02-10T07:33:39;103353.72;;;8.47;100.00
64352;BME280;50680;52.626;-8.668;2023-02-10T07:36:06;103352.84;;;8.50;100.00
64352;BME280;50680;52.626;-8.668;2023-02-10T07:38:34;103355.41;;;8.51;100.00
64352;BME280;50680;52.626;-8.668;2023-02-10T07:41:00;103357.16;;;8.52;100.00
64352;BME280;50680;52.626;-8.668;2023-02-10T07:43:27;103360.63;;;8.53;100.00
64352;BME280;50680;52.626;-8.668;2023-02-10T07:45:54;103366.75;;;8.55;100.00
64352;BME280;50680;52.626;-8.668;2023-02-10T07:48:21;103365.00;;;8.55;100.00
64352;BME280;50680;52.626;-8.668;2023-02-10T07:50:48;103368.47;;;8.57;100.00
64352;BME280;50680;52.626;-8.668;2023-02-10T07:53:21;103372.81;;;8.58;100.00
64352;BME280;50680;52.626;-8.668;2023-02-10T07:55:48;103368.44;;;8.59;100.00
64352;BME280;50680;52.626;-8.668;2023-02-10T07:58:15;103372.81;;;8.58;100.00
64352;BME280;50680;52.626;-8.668;2023-02-10T08:00:42;103367.59;;;8.57;100.00
64352;BME280;50680;52.626;-8.668;2023-02-10T08:03:12;103373.66;;;8.60;100.00
64352;BME280;50680;52.626;-8.668;2023-02-10T08:05:40;103377.16;;;8.58;100.00
64352;BME280;50680;52.626;-8.668;2023-02-10T08:08:11;103376.28;;;8.60;100.00
64352;BME280;50680;52.626;-8.668;2023-02-10T08:10:40;103371.94;;;8.58;100.00
64352;BME280;50680;52.626;-8.668;2023-02-10T08:13:07;103377.13;;;8.61;100.00
64352;BME280;50680;52.626;-8.668;2023-02-10T08:15:34;103375.38;;;8.61;100.00
64352;BME280;50680;52.626;-8.668;2023-02-10T08:18:01;103382.34;;;8.65;100.00
64352;BME280;50680;52.626;-8.668;2023-02-10T08:20:28;103376.22;;;8.68;100.00
64352;BME280;50680;52.626;-8.668;2023-02-10T08:22:55;103379.72;;;8.69;100.00
64352;BME280;50680;52.626;-8.668;2023-02-10T08:25:22;103384.91;;;8.72;100.00
64352;BME280;50680;52.626;-8.668;2023-02-10T08:27:49;103381.41;;;8.73;100.00
64352;BME280;50680;52.626;-8.668;2023-02-10T08:30:16;103389.25;;;8.74;100.00
64352;BME280;50680;52.626;-8.668;2023-02-10T08:32:44;103388.34;;;8.77;100.00
64352;BME280;50680;52.626;-8.668;2023-02-10T08:35:13;103380.56;;;8.72;100.00
64352;BME280;50680;52.626;-8.668;2023-02-10T08:37:40;103393.53;;;8.80;100.00
64352;BME280;50680;52.626;-8.668;2023-02-10T08:40:07;103391.78;;;8.83;100.00
64352;BME280;50680;52.626;-8.668;2023-02-10T08:42:35;103390.06;;;8.81;100.00
64352;BME280;50680;52.626;-8.668;2023-02-10T08:45:02;103400.47;;;8.87;100.00
64352;BME280;50680;52.626;-8.668;2023-02-10T08:47:29;103400.44;;;8.90;100.00
64352;BME280;50680;52.626;-8.668;2023-02-10T08:49:56;103406.50;;;8.92;100.00
64352;BME280;50680;52.626;-8.668;2023-02-10T08:52:22;103398.66;;;8.92;100.00
64352;BME280;50680;52.626;-8.668;2023-02-10T08:54:50;103401.25;;;8.97;100.00
64352;BME280;50680;52.626;-8.668;2023-02-10T08:57:18;103399.50;;;8.97;100.00
64352;BME280;50680;52.626;-8.668;2023-02-10T08:59:45;103408.19;;;9.01;100.00
64352;BME280;50680;52.626;-8.668;2023-02-10T09:02:12;103411.63;;;9.04;100.00
64352;BME280;50680;52.626;-8.668;2023-02-10T09:04:39;103415.97;;;9.09;100.00
64352;BME280;50680;52.626;-8.668;2023-02-10T09:07:06;103409.84;;;9.10;100.00
64352;BME280;50680;52.626;-8.668;2023-02-10T09:09:38;103411.59;;;9.11;100.00
64352;BME280;50680;52.626;-8.668;2023-02-10T09:12:06;103422.91;;;9.13;100.00
64352;BME280;50680;52.626;-8.668;2023-02-10T09:14:33;103424.66;;;9.14;100.00
64352;BME280;50680;52.626;-8.668;2023-02-10T09:17:00;103423.75;;;9.15;100.00
64352;BME280;50680;52.626;-8.668;2023-02-10T09:19:27;103432.44;;;9.18;100.00
64352;BME280;50680;52.626;-8.668;2023-02-10T09:21:54;103429.84;;;9.17;100.00
64352;BME280;50680;52.626;-8.668;2023-02-10T09:24:22;103428.88;;;9.26;100.00
64352;BME280;50680;52.626;-8.668;2023-02-10T09:26:50;103430.56;;;9.33;100.00
64352;BME280;50680;52.626;-8.668;2023-02-10T09:29:17;103438.34;;;9.39;100.00
64352;BME280;50680;52.626;-8.668;2023-02-10T09:31:43;103444.41;;;9.43;100.00
64352;BME280;50680;52.626;-8.668;2023-02-10T09:34:10;103447.88;;;9.45;100.00
64352;BME280;50680;52.626;-8.668;2023-02-10T09:36:37;103454.88;;;9.46;100.00
64352;BME280;50680;52.626;-8.668;2023-02-10T09:39:04;103449.53;;;9.55;100.00
64352;BME280;50680;52.626;-8.668;2023-02-10T09:52:46;103454.31;;;9.95;100.00
64352;BME280;50680;52.626;-8.668;2023-02-10T10:00:40;103447.81;;;10.24;100.00
64352;BME280;50680;52.626;-8.668;2023-02-10T10:03:14;103460.75;;;10.36;100.00
64352;BME280;50680;52.626;-8.668;2023-02-10T10:10:58;103463.88;;;10.64;100.00
64352;BME280;50680;52.626;-8.668;2023-02-10T10:13:28;103464.56;;;10.74;100.00
64352;BME280;50680;52.626;-8.668;2023-02-10T10:16:24;103472.38;;;10.79;100.00
64352;BME280;50680;52.626;-8.668;2023-02-10T10:19:01;103477.44;;;10.89;100.00
64352;BME280;50680;52.626;-8.668;2023-02-10T10:21:33;103479.88;;;11.02;100.00
64352;BME280;50680;52.626;-8.668;2023-02-10T10:32:18;103491.38;;;11.46;100.00
64352;BME280;50680;52.626;-8.668;2023-02-10T10:34:53;103488.53;;;11.57;100.00
64352;BME280;50680;52.626;-8.668;2023-02-10T10:37:23;103494.53;;;11.65;100.00
64352;BME280;50680;52.626;-8.668;2023-02-10T10:40:04;103494.41;;;11.70;100.00
64352;BME280;50680;52.626;-8.668;2023-02-10T10:46:03;103497.66;;;11.84;100.00
64352;BME280;50680;52.626;-8.668;2023-02-10T10:48:24;103490.53;;;11.91;100.00
64352;BME280;50680;52.626;-8.668;2023-02-10T10:50:58;103484.22;;;11.99;100.00
64352;BME280;50680;52.626;-8.668;2023-02-10T10:53:38;103490.16;;;12.08;100.00
64352;BME280;50680;52.626;-8.668;2023-02-10T10:56:33;103484.06;;;12.07;100.00
64352;BME280;50680;52.626;-8.668;2023-02-10T10:59:10;103484.69;;;12.20;100.00
64352;BME280;50680;52.626;-8.668;2023-02-10T11:01:41;103481.75;;;12.34;100.00
64352;BME280;50680;52.626;-8.668;2023-02-10T11:04:20;103490.22;;;12.47;100.00
64352;BME280;50680;52.626;-8.668;2023-02-10T11:06:50;103485.41;;;12.64;100.00
64352;BME280;50680;52.626;-8.668;2023-02-10T11:12:04;103494.75;;;13.13;100.00
64352;BME280;50680;52.626;-8.668;2023-02-10T11:14:42;103497.06;;;13.26;100.00
64352;BME280;50680;52.626;-8.668;2023-02-10T11:17:40;103492.47;;;13.34;100.00
64352;BME280;50680;52.626;-8.668;2023-02-10T11:22:37;103490.72;;;13.67;100.00
64352;BME280;50680;52.626;-8.668;2023-02-10T11:27:54;103488.91;;;13.99;100.00
64352;BME280;50680;52.626;-8.668;2023-02-10T11:30:36;103492.25;;;14.06;100.00
64352;BME280;50680;52.626;-8.668;2023-02-10T11:33:05;103490.25;;;14.14;100.00
64352;BME280;50680;52.626;-8.668;2023-02-10T11:35:33;103496.97;;;14.24;100.00
64352;BME280;50680;52.626;-8.668;2023-02-10T11:38:06;103490.31;;;14.41;100.00
64352;BME280;50680;52.626;-8.668;2023-02-10T11:40:56;103486.03;;;14.37;100.00
64352;BME280;50680;52.626;-8.668;2023-02-10T11:43:34;103486.72;;;14.43;100.00
64352;BME280;50680;52.626;-8.668;2023-02-10T11:46:04;103493.09;;;14.36;100.00
64352;BME280;50680;52.626;-8.668;2023-02-10T11:48:32;103485.41;;;14.28;100.00
64352;BME280;50680;52.626;-8.668;2023-02-10T11:51:13;103481.22;;;14.21;100.00
64352;BME280;50680;52.626;-8.668;2023-02-10T11:53:42;103478.56;;;14.23;100.00
64352;BME280;50680;52.626;-8.668;2023-02-10T11:56:26;103482.72;;;14.02;100.00
64352;BME280;50680;52.626;-8.668;2023-02-10T11:59:39;103470.31;;;13.74;100.00
64352;BME280;50680;52.626;-8.668;2023-02-10T12:02:14;103476.66;;;13.67;100.00
64352;BME280;50680;52.626;-8.668;2023-02-10T12:11:14;103464.97;;;13.44;100.00
64352;BME280;50680;52.626;-8.668;2023-02-10T12:14:06;103464.97;;;13.44;100.00
64352;BME280;50680;52.626;-8.668;2023-02-10T12:19:22;103454.53;;;13.41;100.00
64352;BME280;50680;52.626;-8.668;2023-02-10T12:25:01;103455.78;;;13.26;100.00
64352;BME280;50680;52.626;-8.668;2023-02-10T12:30:30;103454.53;;;13.41;100.00
64352;BME280;50680;52.626;-8.668;2023-02-10T12:33:21;103455.28;;;13.46;100.00
64352;BME280;50680;52.626;-8.668;2023-02-10T12:41:30;103450.09;;;13.43;100.00
64352;BME280;50680;52.626;-8.668;2023-02-10T12:49:47;103440.75;;;13.63;100.00
64352;BME280;50680;52.626;-8.668;2023-02-10T12:52:29;103447.75;;;13.64;100.00
64352;BME280;50680;52.626;-8.668;2023-02-10T12:55:05;103446.66;;;13.71;100.00
64352;BME280;50680;52.626;-8.668;2023-02-10T12:57:46;103440.44;;;13.73;100.00
64352;BME280;50680;52.626;-8.668;2023-02-10T13:03:33;103436.16;;;13.69;100.00
64352;BME280;50680;52.626;-8.668;2023-02-10T13:06:39;103431.97;;;13.62;100.00
64352;BME280;50680;52.626;-8.668;2023-02-10T13:09:21;103428.41;;;13.63;100.00
64352;BME280;50680;52.626;-8.668;2023-02-10T13:12:21;103434.81;;;13.54;100.00
64352;BME280;50680;52.626;-8.668;2023-02-10T13:14:48;103432.38;;;13.48;100.00
64352;BME280;50680;52.626;-8.668;2023-02-10T13:17:17;103420.66;;;13.26;100.00
64352;BME280;50680;52.626;-8.668;2023-02-10T13:19:59;103416.59;;;13.14;100.00
64352;BME280;50680;52.626;-8.668;2023-02-10T13:33:17;103428.38;;;12.99;100.00
64352;BME280;50680;52.626;-8.668;2023-02-10T13:35:47;103426.75;;;12.95;100.00
64352;BME280;50680;52.626;-8.668;2023-02-10T13:38:18;103419.91;;;12.88;100.00
64352;BME280;50680;52.626;-8.668;2023-02-10T13:40:51;103422.88;;;12.74;100.00
64352;BME280;50680;52.626;-8.668;2023-02-10T13:45:53;103426.84;;;12.54;100.00
64352;BME280;50680;52.626;-8.668;2023-02-10T13:48:27;103422.69;;;12.46;100.00
64352;BME280;50680;52.626;-8.668;2023-02-10T13:51:01;103420.91;;;12.48;100.00
64352;BME280;50680;52.626;-8.668;2023-02-10T13:59:01;103428.59;;;12.55;100.00
64352;BME280;50680;52.626;-8.668;2023-02-10T14:01:42;103433.59;;;12.66;100.00
64352;BME280;50680;52.626;-8.668;2023-02-10T14:06:48;103430.53;;;12.83;100.00
64352;BME280;50680;52.626;-8.668;2023-02-10T14:11:59;103434.13;;;12.81;100.00
64352;BME280;50680;52.626;-8.668;2023-02-10T14:14:36;103434.28;;;12.74;100.00
64352;BME280;50680;52.626;-8.668;2023-02-10T14:19:41;103434.34;;;12.71;100.00
64352;BME280;50680;52.626;-8.668;2023-02-10T14:22:32;103432.03;;;12.57;100.00
64352;BME280;50680;52.626;-8.668;2023-02-10T14:25:19;103434.72;;;12.56;100.00
64352;BME280;50680;52.626;-8.668;2023-02-10T14:27:51;103435.50;;;12.59;100.00
64352;BME280;50680;52.626;-8.668;2023-02-10T14:30:24;103428.53;;;12.58;100.00
64352;BME280;50680;52.626;-8.668;2023-02-10T14:32:53;103439.78;;;12.65;100.00
64352;BME280;50680;52.626;-8.668;2023-02-10T14:35:23;103446.84;;;12.63;100.00
64352;BME280;50680;52.626;-8.668;2023-02-10T14:37:58;103437.59;;;12.45;100.00
64352;BME280;50680;52.626;-8.668;2023-02-10T14:40:27;103439.41;;;12.43;100.00
64352;BME280;50680;52.626;-8.668;2023-02-10T14:42:56;103436.91;;;12.37;100.00
64352;BME280;50680;52.626;-8.668;2023-02-10T14:45:26;103441.28;;;12.38;100.00
64352;BME280;50680;52.626;-8.668;2023-02-10T14:47:55;103442.91;;;12.44;100.00
64352;BME280;50680;52.626;-8.668;2023-02-10T14:50:29;103438.53;;;12.44;100.00
64352;BME280;50680;52.626;-8.668;2023-02-10T14:52:57;103437.38;;;12.54;100.00
64352;BME280;50680;52.626;-8.668;2023-02-10T14:57:51;103441.34;;;12.72;100.00